Time;durP1;ratioP1;P1;durP2;ratioP2;P2;SDS_P1;SDS_P2;PMS_P1;PMS_P2;Temp;Humidity;BMP_temperature;BMP_pressure;BME280_temperature;BME280_humidity;BME280_pressure;Samples;Min_cycle;Max_cycle;Signal;HPM_P1;HPM_P2
2023/07/04 00:01:09;;;;;;;10.10;6.38;;;;;;;;;;4989014;28;20018;-77
2023/07/04 00:03:35;;;;;;;10.98;5.50;;;;;;;;;;4989471;28;20614;-78
2023/07/04 00:06:01;;;;;;;10.50;5.78;;;;;;;;;;4990202;28;20026;-77
2023/07/04 00:08:29;;;;;;;7.55;5.70;;;;;;;;;;4991220;28;20104;-77
2023/07/04 00:10:58;;;;;;;10.60;6.38;;;;;;;;;;4996088;28;20039;-78
2023/07/04 00:13:25;;;;;;;13.43;6.10;;;;;;;;;;5004230;28;20058;-77
2023/07/04 00:15:51;;;;;;;13.93;5.93;;;;;;;;;;4999777;28;20034;-76
2023/07/04 00:18:20;;;;;;;13.90;7.22;;;;;;;;;;4990463;28;20038;-78
2023/07/04 00:20:47;;;;;;;7.90;5.75;;;;;;;;;;4989058;28;20034;-79
2023/07/04 00:23:13;;;;;;;13.13;6.30;;;;;;;;;;4974928;28;20125;-77
2023/07/04 00:25:39;;;;;;;18.58;7.20;;;;;;;;;;4993886;28;20121;-77
2023/07/04 00:28:05;;;;;;;14.00;6.57;;;;;;;;;;4993542;28;20070;-78
2023/07/04 00:30:32;;;;;;;13.65;6.95;;;;;;;;;;4992543;28;20030;-78
2023/07/04 00:32:58;;;;;;;11.13;7.40;;;;;;;;;;4992547;28;20130;-78
2023/07/04 00:35:25;;;;;;;15.80;7.13;;;;;;;;;;4993429;28;20034;-78
2023/07/04 00:37:51;;;;;;;12.68;6.68;;;;;;;;;;4991972;28;20081;-78
2023/07/04 00:40:17;;;;;;;15.93;7.00;;;;;;;;;;4993595;28;20501;-78
2023/07/04 00:42:45;;;;;;;10.48;7.10;;;;;;;;;;4992378;28;20417;-78
2023/07/04 00:45:19;;;;;;;13.57;6.82;;;;;;;;;;4993400;28;20027;-78
2023/07/04 00:47:53;;;;;;;12.70;6.53;;;;;;;;;;4993391;28;20038;-77
2023/07/04 00:50:23;;;;;;;13.27;7.15;;;;;;;;;;4992057;28;20050;-77
2023/07/04 00:52:49;;;;;;;19.23;7.15;;;;;;;;;;4992937;28;20046;-77
2023/07/04 00:55:15;;;;;;;18.63;6.93;;;;;;;;;;4992080;28;20046;-78
2023/07/04 00:57:41;;;;;;;9.05;6.28;;;;;;;;;;4959919;28;20103;-77
2023/07/04 01:00:18;;;;;;;10.52;6.50;;;;;;;;;;4991597;28;20382;-77
2023/07/04 01:02:45;;;;;;;13.18;6.25;;;;;;;;;;4991965;28;20505;-78
2023/07/04 01:05:12;;;;;;;9.70;7.18;;;;;;;;;;4991679;28;20411;-76
2023/07/04 01:07:40;;;;;;;19.52;6.05;;;;;;;;;;4991688;28;20336;-77
2023/07/04 01:10:11;;;;;;;15.23;6.63;;;;;;;;;;4975275;28;20112;-76
2023/07/04 01:12:37;;;;;;;7.65;6.63;;;;;;;;;;4991733;28;20537;-78
2023/07/04 01:15:03;;;;;;;9.90;6.32;;;;;;;;;;4992997;28;20046;-77
2023/07/04 01:17:31;;;;;;;15.82;7.82;;;;;;;;;;4998913;28;20034;-76
2023/07/04 01:19:57;;;;;;;13.82;6.95;;;;;;;;;;5008208;28;20069;-78
2023/07/04 01:22:27;;;;;;;15.65;8.10;;;;;;;;;;4992391;28;20069;-77
2023/07/04 01:24:53;;;;;;;17.30;7.47;;;;;;;;;;4993184;28;20525;-77
2023/07/04 01:27:19;;;;;;;10.40;6.82;;;;;;;;;;4992854;28;20343;-78
2023/07/04 01:29:45;;;;;;;10.85;7.78;;;;;;;;;;4991484;28;20050;-77
2023/07/04 01:32:11;;;;;;;11.98;6.70;;;;;;;;;;4992184;28;20486;-76
2023/07/04 01:34:37;;;;;;;9.35;6.15;;;;;;;;;;4992867;28;20042;-78
2023/07/04 01:37:04;;;;;;;12.25;6.93;;;;;;;;;;4990919;28;20524;-78
2023/07/04 01:39:30;;;;;;;10.00;6.30;;;;;;;;;;4992461;28;20509;-76
2023/07/04 01:41:57;;;;;;;7.38;5.93;;;;;;;;;;4990708;28;20057;-77
2023/07/04 01:44:24;;;;;;;8.13;6.75;;;;;;;;;;4992346;28;20492;-76
2023/07/04 01:46:50;;;;;;;11.35;6.20;;;;;;;;;;4991008;28;20030;-77
2023/07/04 01:49:19;;;;;;;9.68;5.80;;;;;;;;;;4990934;28;20078;-77
2023/07/04 01:51:46;;;;;;;8.63;5.72;;;;;;;;;;4991690;28;20061;-77
2023/07/04 01:54:17;;;;;;;10.52;5.25;;;;;;;;;;4991899;28;20244;-77
2023/07/04 01:56:44;;;;;;;8.73;5.47;;;;;;;;;;4974507;28;20557;-79
2023/07/04 01:59:10;;;;;;;13.80;6.60;;;;;;;;;;4990450;28;20180;-77
2023/07/04 02:01:37;;;;;;;9.43;5.35;;;;;;;;;;4990687;28;20030;-77
2023/07/04 02:04:03;;;;;;;6.45;5.55;;;;;;;;;;4991940;28;20049;-77
2023/07/04 02:06:30;;;;;;;6.13;5.32;;;;;;;;;;4990699;28;20035;-76
2023/07/04 02:08:57;;;;;;;12.20;5.25;;;;;;;;;;4990496;28;20057;-77
2023/07/04 02:11:23;;;;;;;6.03;5.18;;;;;;;;;;4990505;28;20094;-78
2023/07/04 02:13:51;;;;;;;8.38;5.25;;;;;;;;;;4991971;28;20091;-77
2023/07/04 02:16:17;;;;;;;7.40;6.30;;;;;;;;;;4990403;28;20041;-78
2023/07/04 02:18:44;;;;;;;10.68;5.50;;;;;;;;;;4991782;28;20108;-78
2023/07/04 02:21:30;;;;;;;7.47;5.10;;;;;;;;;;4977354;28;20069;-78
2023/07/04 02:23:59;;;;;;;8.63;5.13;;;;;;;;;;4991911;28;20117;-77
2023/07/04 02:26:24;;;;;;;6.78;5.53;;;;;;;;;;4992106;28;20056;-77
2023/07/04 02:28:51;;;;;;;10.00;5.18;;;;;;;;;;4991929;28;20529;-78
2023/07/04 02:31:17;;;;;;;5.50;4.68;;;;;;;;;;4974825;28;20061;-78
2023/07/04 02:33:43;;;;;;;10.50;5.25;;;;;;;;;;4990744;28;20093;-78
2023/07/04 02:36:11;;;;;;;11.98;5.05;;;;;;;;;;4990339;28;20129;-76
2023/07/04 02:38:39;;;;;;;6.22;4.95;;;;;;;;;;4991496;28;20042;-78
2023/07/04 02:41:06;;;;;;;8.27;5.45;;;;;;;;;;4989929;28;20120;-79
2023/07/04 02:43:33;;;;;;;12.80;5.32;;;;;;;;;;4990225;28;20038;-78
2023/07/04 02:46:00;;;;;;;13.75;5.70;;;;;;;;;;4989570;28;20046;-78
2023/07/04 02:48:26;;;;;;;10.13;5.50;;;;;;;;;;4991414;28;20100;-77
2023/07/04 02:50:52;;;;;;;6.60;5.47;;;;;;;;;;4990109;28;20042;-77
2023/07/04 02:53:21;;;;;;;12.55;5.40;;;;;;;;;;4973586;28;20057;-78
2023/07/04 02:55:48;;;;;;;12.05;4.72;;;;;;;;;;4990302;28;20070;-78
2023/07/04 02:58:16;;;;;;;9.57;4.95;;;;;;;;;;4989846;28;20339;-79
2023/07/04 03:00:42;;;;;;;14.55;5.47;;;;;;;;;;4991287;28;20034;-78
2023/07/04 03:03:08;;;;;;;5.13;4.63;;;;;;;;;;4990045;28;20073;-77
2023/07/04 03:05:35;;;;;;;13.68;5.38;;;;;;;;;;4958071;28;20501;-78
2023/07/04 03:08:02;;;;;;;14.30;5.47;;;;;;;;;;4990494;28;20108;-80
2023/07/04 03:10:28;;;;;;;10.48;4.80;;;;;;;;;;4991853;28;20046;-77
2023/07/04 03:12:55;;;;;;;7.45;5.38;;;;;;;;;;4991584;28;20038;-77
2023/07/04 03:15:23;;;;;;;6.85;5.03;;;;;;;;;;5000021;28;20034;-78
2023/07/04 03:17:51;;;;;;;9.75;5.85;;;;;;;;;;5002119;28;20062;-78
2023/07/04 03:20:19;;;;;;;14.10;5.47;;;;;;;;;;5002455;28;20030;-77
2023/07/04 03:22:48;;;;;;;12.30;5.40;;;;;;;;;;4992527;28;20050;-78
2023/07/04 03:25:15;;;;;;;8.40;5.43;;;;;;;;;;4990838;28;20536;-78
2023/07/04 03:27:44;;;;;;;10.20;5.15;;;;;;;;;;4973936;28;20420;-76
2023/07/04 03:30:12;;;;;;;11.02;5.38;;;;;;;;;;4989392;28;20129;-79
2023/07/04 03:32:41;;;;;;;10.60;5.70;;;;;;;;;;4973231;28;20045;-77
2023/07/04 03:35:08;;;;;;;10.35;5.55;;;;;;;;;;4989433;28;20049;-78
2023/07/04 03:37:35;;;;;;;7.65;5.40;;;;;;;;;;4989351;28;20035;-78
2023/07/04 03:40:06;;;;;;;7.32;5.32;;;;;;;;;;4990417;28;20081;-79
2023/07/04 03:42:33;;;;;;;9.85;5.05;;;;;;;;;;4989317;28;20478;-78
2023/07/04 03:44:59;;;;;;;11.88;5.32;;;;;;;;;;4989443;28;20038;-78
2023/07/04 03:47:25;;;;;;;14.82;5.15;;;;;;;;;;4990300;28;20536;-79
2023/07/04 03:49:51;;;;;;;7.95;5.13;;;;;;;;;;4990588;28;20053;-78
2023/07/04 03:52:17;;;;;;;10.38;4.78;;;;;;;;;;4989198;28;20518;-78
2023/07/04 03:54:43;;;;;;;10.18;5.20;;;;;;;;;;4990927;28;20038;-78
2023/07/04 03:57:09;;;;;;;7.32;5.50;;;;;;;;;;4990942;28;20034;-77
2023/07/04 03:59:35;;;;;;;8.02;5.20;;;;;;;;;;4994492;28;20035;-78
2023/07/04 04:02:01;;;;;;;9.23;5.40;;;;;;;;;;4992907;28;20030;-78
2023/07/04 04:04:27;;;;;;;17.55;6.00;;;;;;;;;;4999111;28;20073;-77
2023/07/04 04:06:56;;;;;;;12.02;5.22;;;;;;;;;;4984957;28;20081;-78
2023/07/04 04:09:22;;;;;;;10.90;5.47;;;;;;;;;;4994728;28;20049;-78
2023/07/04 04:11:49;;;;;;;13.32;5.55;;;;;;;;;;4994767;28;20045;-77
2023/07/04 04:14:15;;;;;;;10.93;6.22;;;;;;;;;;4994033;28;20279;-78
2023/07/04 04:16:41;;;;;;;10.70;5.57;;;;;;;;;;4994225;28;20058;-76
2023/07/04 04:19:07;;;;;;;12.32;6.38;;;;;;;;;;4976772;28;20492;-78
2023/07/04 04:21:33;;;;;;;8.90;5.78;;;;;;;;;;4994333;28;20504;-78
2023/07/04 04:23:59;;;;;;;15.70;6.20;;;;;;;;;;4992532;28;20048;-78
2023/07/04 04:26:25;;;;;;;10.25;5.28;;;;;;;;;;4993967;28;20031;-78
2023/07/04 04:28:53;;;;;;;9.23;5.40;;;;;;;;;;4993881;28;20050;-79
2023/07/04 04:31:19;;;;;;;17.35;5.95;;;;;;;;;;4992512;28;20131;-77
2023/07/04 04:33:45;;;;;;;10.25;5.53;;;;;;;;;;4994046;28;20096;-78
2023/07/04 04:36:11;;;;;;;12.10;6.00;;;;;;;;;;4992632;28;20065;-77
2023/07/04 04:38:37;;;;;;;19.40;6.10;;;;;;;;;;4994175;28;20042;-78
2023/07/04 04:41:04;;;;;;;14.93;6.43;;;;;;;;;;4993703;28;20037;-78
2023/07/04 04:43:32;;;;;;;15.68;7.00;;;;;;;;;;4992165;28;20129;-77
2023/07/04 04:45:59;;;;;;;11.10;5.88;;;;;;;;;;4993888;28;20061;-79
2023/07/04 04:48:29;;;;;;;12.52;5.97;;;;;;;;;;4993380;28;20413;-78
2023/07/04 04:50:55;;;;;;;;;;;;;;;;;;4992999;28;20091;-78
2023/07/04 04:53:24;;;;;;;13.73;5.90;;;;;;;;;;4992063;28;19984;-78
2023/07/04 04:55:51;;;;;;;20.83;6.15;;;;;;;;;;4993752;28;20046;-78
2023/07/04 04:58:18;;;;;;;15.95;6.30;;;;;;;;;;4993475;28;20038;-77
2023/07/04 05:00:44;;;;;;;8.60;5.75;;;;;;;;;;4992119;28;20117;-78
2023/07/04 05:03:10;;;;;;;14.20;6.10;;;;;;;;;;4993012;28;20139;-78
2023/07/04 05:05:36;;;;;;;15.45;5.25;;;;;;;;;;4993672;28;20041;-78
2023/07/04 05:08:02;;;;;;;8.30;4.60;;;;;;;;;;4975720;28;20038;-77
2023/07/04 05:10:28;;;;;;;8.55;5.07;;;;;;;;;;4993438;28;20083;-78
2023/07/04 05:12:54;;;;;;;6.10;4.68;;;;;;;;;;4993185;28;20509;-78
2023/07/04 05:15:20;;;;;;;16.67;4.45;;;;;;;;;;4992046;28;20084;-77
2023/07/04 05:17:46;;;;;;;9.50;4.72;;;;;;;;;;4991831;28;20085;-78
2023/07/04 05:20:22;;;;;;;8.55;4.85;;;;;;;;;;4993202;28;20034;-79
2023/07/04 05:22:48;;;;;;;10.88;4.70;;;;;;;;;;4992212;28;20133;-77
2023/07/04 05:25:14;;;;;;;9.93;4.50;;;;;;;;;;4991646;28;20692;-80
2023/07/04 05:27:41;;;;;;;8.98;4.63;;;;;;;;;;4992576;28;20042;-78
2023/07/04 05:30:08;;;;;;;11.63;4.78;;;;;;;;;;4992672;28;20050;-77
2023/07/04 05:32:34;;;;;;;7.03;4.65;;;;;;;;;;4991882;28;20133;-78
2023/07/04 05:35:00;;;;;;;15.50;4.65;;;;;;;;;;4993303;28;20113;-79
2023/07/04 05:37:28;;;;;;;11.48;4.72;;;;;;;;;;4959709;28;20035;-79
2023/07/04 05:39:54;;;;;;;11.45;4.97;;;;;;;;;;4993232;28;20034;-79
2023/07/04 05:42:20;;;;;;;10.98;4.70;;;;;;;;;;4991340;28;20038;-77
2023/07/04 05:44:46;;;;;;;6.38;4.18;;;;;;;;;;4992825;28;20045;-79
2023/07/04 05:47:12;;;;;;;11.25;4.60;;;;;;;;;;4991263;28;20038;-77
2023/07/04 05:49:38;;;;;;;8.38;4.20;;;;;;;;;;4991458;28;20042;-78
2023/07/04 05:52:05;;;;;;;8.55;4.20;;;;;;;;;;4991852;28;20050;-77
2023/07/04 05:54:31;;;;;;;7.63;4.20;;;;;;;;;;4991371;28;20057;-78
2023/07/04 05:56:57;;;;;;;15.20;4.60;;;;;;;;;;4991346;28;20042;-78
2023/07/04 05:59:23;;;;;;;9.85;4.20;;;;;;;;;;4991119;28;20199;-78
2023/07/04 06:01:50;;;;;;;10.00;4.70;;;;;;;;;;4990059;28;20044;-78
2023/07/04 06:04:17;;;;;;;7.38;4.20;;;;;;;;;;4989917;28;20034;-79
2023/07/04 06:06:51;;;;;;;7.65;4.10;;;;;;;;;;4989970;28;20037;-78
2023/07/04 06:09:17;;;;;;;5.60;4.40;;;;;;;;;;4991743;28;20046;-78
2023/07/04 06:11:48;;;;;;;7.45;3.90;;;;;;;;;;4992985;28;20457;-80
2023/07/04 06:14:15;;;;;;;6.22;4.45;;;;;;;;;;4992507;28;20162;-78
2023/07/04 06:16:41;;;;;;;7.82;4.10;;;;;;;;;;4992208;28;20449;-79
2023/07/04 06:19:07;;;;;;;9.80;4.45;;;;;;;;;;4992173;28;20096;-79
2023/07/04 06:21:33;;;;;;;8.32;4.43;;;;;;;;;;4999246;28;20046;-80
2023/07/04 06:23:59;;;;;;;12.02;4.18;;;;;;;;;;4992985;28;20038;-77
2023/07/04 06:26:27;;;;;;;14.13;4.22;;;;;;;;;;4991060;28;20045;-79
2023/07/04 06:28:54;;;;;;;15.10;4.32;;;;;;;;;;4991128;28;20121;-79
2023/07/04 06:31:20;;;;;;;7.82;4.35;;;;;;;;;;4989227;28;20034;-79
2023/07/04 06:33:46;;;;;;;8.07;4.13;;;;;;;;;;4990700;28;20030;-78
2023/07/04 06:36:14;;;;;;;12.27;4.13;;;;;;;;;;4990686;28;20038;-78
2023/07/04 06:38:41;;;;;;;7.88;3.75;;;;;;;;;;4990667;28;20513;-80
2023/07/04 06:41:08;;;;;;;6.13;3.88;;;;;;;;;;4990929;28;20520;-79
2023/07/04 06:43:34;;;;;;;8.30;4.40;;;;;;;;;;4989119;28;20034;-78
2023/07/04 06:46:00;;;;;;;5.32;3.60;;;;;;;;;;4973307;28;20045;-78
2023/07/04 06:48:26;;;;;;;8.18;4.10;;;;;;;;;;4988968;28;20113;-77
2023/07/04 06:51:02;;;;;;;3.75;3.45;;;;;;;;;;4992988;28;20034;-78
2023/07/04 06:53:29;;;;;;;8.57;3.95;;;;;;;;;;5013183;28;20033;-78
2023/07/04 06:56:04;;;;;;;5.35;4.00;;;;;;;;;;4995714;28;20089;-79
2023/07/04 06:58:30;;;;;;;5.07;3.88;;;;;;;;;;4991506;28;20365;-79
2023/07/04 07:00:56;;;;;;;4.68;3.80;;;;;;;;;;4990394;28;20030;-78
2023/07/04 07:03:22;;;;;;;9.32;4.38;;;;;;;;;;4990938;28;20121;-79
2023/07/04 07:05:48;;;;;;;4.32;3.50;;;;;;;;;;4990989;28;20125;-78
2023/07/04 07:08:16;;;;;;;7.60;3.83;;;;;;;;;;4990651;28;20038;-79
2023/07/04 07:10:52;;;;;;;7.57;4.30;;;;;;;;;;4991011;28;20417;-79
2023/07/04 07:13:18;;;;;;;9.50;4.15;;;;;;;;;;4989615;28;20034;-78
2023/07/04 07:15:44;;;;;;;5.28;3.80;;;;;;;;;;4990856;28;20042;-78
2023/07/04 07:18:10;;;;;;;5.55;4.00;;;;;;;;;;4991125;28;20421;-78
2023/07/04 07:20:36;;;;;;;6.28;3.72;;;;;;;;;;4973649;28;20038;-78
2023/07/04 07:23:02;;;;;;;4.10;3.05;;;;;;;;;;4990726;28;20054;-79
2023/07/04 07:25:28;;;;;;;7.85;3.83;;;;;;;;;;4990675;28;20034;-77
2023/07/04 07:27:53;;;;;;;5.43;3.78;;;;;;;;;;4989276;28;20049;-79
2023/07/04 07:30:19;;;;;;;7.20;4.15;;;;;;;;;;4989169;28;20120;-80
2023/07/04 07:32:45;;;;;;;7.68;4.20;;;;;;;;;;4992450;28;20034;-78
2023/07/04 07:35:12;;;;;;;8.05;4.10;;;;;;;;;;4993338;28;20091;-79
2023/07/04 07:37:38;;;;;;;7.18;3.78;;;;;;;;;;4993533;28;20038;-79
2023/07/04 07:40:05;;;;;;;7.53;4.10;;;;;;;;;;4994811;28;20420;-79
2023/07/04 07:42:32;;;;;;;9.57;4.38;;;;;;;;;;4994298;28;20080;-80
2023/07/04 07:44:57;;;;;;;5.88;4.10;;;;;;;;;;4994550;28;20042;-79
2023/07/04 07:47:23;;;;;;;4.38;3.70;;;;;;;;;;4993234;28;20412;-78
2023/07/04 07:49:49;;;;;;;5.60;3.67;;;;;;;;;;4994332;28;20041;-78
2023/07/04 07:52:16;;;;;;;6.10;3.38;;;;;;;;;;4994258;28;20473;-77
2023/07/04 07:54:42;;;;;;;5.30;4.05;;;;;;;;;;4994559;28;20412;-80
2023/07/04 07:57:08;;;;;;;6.60;3.67;;;;;;;;;;4977199;28;20038;-79
2023/07/04 07:59:34;;;;;;;6.72;3.92;;;;;;;;;;4992766;28;20483;-78
2023/07/04 08:02:01;;;;;;;4.57;3.90;;;;;;;;;;4994435;28;20081;-78
2023/07/04 08:04:27;;;;;;;3.95;3.50;;;;;;;;;;4992568;28;20067;-80
2023/07/04 08:06:53;;;;;;;4.45;3.83;;;;;;;;;;4992993;28;20133;-78
2023/07/04 08:09:19;;;;;;;5.63;3.67;;;;;;;;;;4992749;28;20073;-79
2023/07/04 08:11:45;;;;;;;7.05;4.03;;;;;;;;;;4994271;28;20081;-79
2023/07/04 08:14:13;;;;;;;2.55;2.22;;;;;;;;;;4994216;28;20038;-79
2023/07/04 08:16:46;;;;;;;3.60;3.30;;;;;;;;;;4992689;28;20033;-80
2023/07/04 08:19:13;;;;;;;3.38;2.80;;;;;;;;;;4993804;28;20468;-80
2023/07/04 08:21:39;;;;;;;4.88;3.50;;;;;;;;;;4993763;28;20069;-78
2023/07/04 08:24:10;;;;;;;5.85;3.80;;;;;;;;;;4993878;28;20082;-79
2023/07/04 08:26:37;;;;;;;7.78;3.97;;;;;;;;;;4993765;28;20129;-79
2023/07/04 08:29:03;;;;;;;3.38;3.10;;;;;;;;;;4997485;28;20094;-79
2023/07/04 08:31:29;;;;;;;5.68;4.05;;;;;;;;;;4992161;28;20133;-79
2023/07/04 08:33:55;;;;;;;4.38;3.38;;;;;;;;;;4993980;28;20042;-77
2023/07/04 08:36:21;;;;;;;9.90;3.63;;;;;;;;;;4993745;28;20129;-79
2023/07/04 08:38:47;;;;;;;4.65;3.55;;;;;;;;;;4994458;28;20042;-78
2023/07/04 08:41:16;;;;;;;5.65;3.40;;;;;;;;;;4994166;28;20031;-80
2023/07/04 08:43:49;;;;;;;4.43;3.42;;;;;;;;;;4975514;28;20049;-79
2023/07/04 08:46:14;;;;;;;3.92;3.47;;;;;;;;;;4993503;28;20037;-79
2023/07/04 08:48:40;;;;;;;6.22;3.55;;;;;;;;;;4975611;28;20042;-80
2023/07/04 08:51:06;;;;;;;6.75;2.97;;;;;;;;;;4993429;28;20065;-78
2023/07/04 08:53:32;;;;;;;9.98;3.47;;;;;;;;;;4991831;28;20512;-78
2023/07/04 08:56:01;;;;;;;3.75;3.42;;;;;;;;;;4993271;28;20141;-79
2023/07/04 08:58:30;;;;;;;3.97;3.60;;;;;;;;;;4992870;28;20497;-80
2023/07/04 09:00:56;;;;;;;4.95;3.83;;;;;;;;;;4993353;28;20395;-79
2023/07/04 09:03:22;;;;;;;4.45;3.60;;;;;;;;;;4991695;28;20035;-80
2023/07/04 09:05:59;;;;;;;5.82;3.42;;;;;;;;;;4993149;28;20097;-80
2023/07/04 09:08:32;;;;;;;13.57;4.07;;;;;;;;;;4991780;28;20522;-79
2023/07/04 09:11:05;;;;;;;4.88;3.63;;;;;;;;;;4992016;28;20116;-79
2023/07/04 09:13:34;;;;;;;7.85;4.13;;;;;;;;;;4991987;28;20033;-79
2023/07/04 09:16:18;;;;;;;3.40;2.85;;;;;;;;;;4992158;28;20133;-80
2023/07/04 09:18:49;;;;;;;6.75;4.03;;;;;;;;;;4976117;28;20038;-78
2023/07/04 09:21:16;;;;;;;9.13;4.10;;;;;;;;;;4995049;28;20041;-78
2023/07/04 09:23:43;;;;;;;5.47;3.50;;;;;;;;;;5000713;28;20043;-79
2023/07/04 09:26:10;;;;;;;5.53;4.15;;;;;;;;;;5001139;28;20104;-79
2023/07/04 09:28:38;;;;;;;4.20;3.50;;;;;;;;;;4992633;28;20081;-80
2023/07/04 09:31:05;;;;;;;4.22;3.90;;;;;;;;;;4993086;28;20034;-80
2023/07/04 09:33:32;;;;;;;4.40;3.90;;;;;;;;;;4991213;28;20501;-78
2023/07/04 09:35:58;;;;;;;6.78;3.83;;;;;;;;;;4991738;28;20030;-79
2023/07/04 09:38:24;;;;;;;6.20;3.80;;;;;;;;;;4975242;28;20045;-79
2023/07/04 09:40:51;;;;;;;4.88;3.72;;;;;;;;;;5010983;28;20042;-78
2023/07/04 09:43:46;;;;;;;5.65;4.05;;;;;;;;;;5006285;28;20038;-79
2023/07/04 09:46:18;;;;;;;10.45;4.78;;;;;;;;;;4980878;28;20464;-78
2023/07/04 09:48:44;;;;;;;10.73;3.90;;;;;;;;;;4992196;28;20057;-78
2023/07/04 09:51:22;;;;;;;9.43;3.90;;;;;;;;;;4990923;28;20058;-80
2023/07/04 09:53:48;;;;;;;4.63;3.97;;;;;;;;;;4991928;28;20057;-79
2023/07/04 09:56:23;;;;;;;10.13;4.00;;;;;;;;;;4991093;28;20034;-79
2023/07/04 09:58:56;;;;;;;11.32;3.70;;;;;;;;;;4992138;28;20044;-79
2023/07/04 10:01:23;;;;;;;6.70;3.90;;;;;;;;;;4990899;28;20113;-79
2023/07/04 10:03:49;;;;;;;8.98;3.80;;;;;;;;;;4990732;28;20053;-78
2023/07/04 10:06:29;;;;;;;4.20;3.35;;;;;;;;;;4992136;28;20091;-78
2023/07/04 10:08:55;;;;;;;8.48;3.85;;;;;;;;;;4990675;28;20509;-79
2023/07/04 10:11:32;;;;;;;8.20;3.67;;;;;;;;;;4990846;28;20042;-79
2023/07/04 10:14:00;;;;;;;6.05;3.97;;;;;;;;;;4991818;28;20046;-79
2023/07/04 10:16:26;;;;;;;5.70;3.63;;;;;;;;;;4990334;28;20092;-79
2023/07/04 10:18:52;;;;;;;7.85;4.20;;;;;;;;;;4991934;28;20129;-77
2023/07/04 10:21:19;;;;;;;8.98;4.10;;;;;;;;;;4975105;28;20124;-79
2023/07/04 10:23:45;;;;;;;4.82;4.32;;;;;;;;;;4991276;28;20038;-80
2023/07/04 10:26:12;;;;;;;5.57;4.05;;;;;;;;;;4990623;28;20085;-78
2023/07/04 10:28:39;;;;;;;6.43;4.00;;;;;;;;;;4989936;28;20069;-79
2023/07/04 10:31:07;;;;;;;5.93;4.28;;;;;;;;;;4991056;28;20531;-79
2023/07/04 10:33:33;;;;;;;6.47;3.40;;;;;;;;;;4989681;28;20034;-79
2023/07/04 10:36:00;;;;;;;5.15;3.78;;;;;;;;;;4991322;28;20437;-79
2023/07/04 10:38:37;;;;;;;5.95;3.88;;;;;;;;;;4990927;28;20505;-79
2023/07/04 10:41:24;;;;;;;5.20;4.10;;;;;;;;;;4989992;28;20553;-79
2023/07/04 10:43:51;;;;;;;5.57;3.92;;;;;;;;;;4989343;28;20042;-79
2023/07/04 10:46:20;;;;;;;4.25;3.83;;;;;;;;;;4990336;28;20047;-78
2023/07/04 10:48:47;;;;;;;11.30;4.17;;;;;;;;;;4989580;28;20078;-80
2023/07/04 10:51:19;;;;;;;7.05;4.20;;;;;;;;;;4989597;28;20293;-79
2023/07/04 10:53:45;;;;;;;7.03;3.80;;;;;;;;;;4989665;28;20427;-78
2023/07/04 10:56:24;;;;;;;9.48;3.80;;;;;;;;;;4990953;28;20045;-80
2023/07/04 10:58:52;;;;;;;4.25;3.47;;;;;;;;;;4989769;28;20130;-79
2023/07/04 11:01:28;;;;;;;8.15;4.00;;;;;;;;;;4989792;28;20033;-81
2023/07/04 11:03:58;;;;;;;4.55;3.90;;;;;;;;;;4989677;28;20034;-79
2023/07/04 11:06:29;;;;;;;4.65;3.90;;;;;;;;;;4990535;28;20109;-78
2023/07/04 11:08:55;;;;;;;5.45;3.97;;;;;;;;;;4990984;28;20050;-78
2023/07/04 11:11:24;;;;;;;4.15;3.42;;;;;;;;;;4989841;28;20417;-79
2023/07/04 11:13:51;;;;;;;4.45;4.05;;;;;;;;;;4989835;28;20033;-79
2023/07/04 11:16:18;;;;;;;5.85;4.53;;;;;;;;;;4989952;28;20141;-80
2023/07/04 11:18:44;;;;;;;6.68;4.28;;;;;;;;;;4989349;28;20031;-79
2023/07/04 11:21:10;;;;;;;4.95;3.95;;;;;;;;;;4990757;28;20042;-78
2023/07/04 11:23:47;;;;;;;4.30;3.90;;;;;;;;;;4990637;28;20030;-80
2023/07/04 11:26:13;;;;;;;5.20;3.63;;;;;;;;;;4989586;28;20038;-79
2023/07/04 11:28:41;;;;;;;10.98;3.92;;;;;;;;;;4990789;28;20030;-79
2023/07/04 11:31:07;;;;;;;4.68;3.80;;;;;;;;;;4989754;28;20039;-80
2023/07/04 11:33:52;;;;;;;5.72;3.72;;;;;;;;;;4990546;28;20034;-80
2023/07/04 11:36:19;;;;;;;4.43;3.50;;;;;;;;;;4990994;28;20046;-80
2023/07/04 11:38:50;;;;;;;4.18;3.70;;;;;;;;;;4990898;28;20084;-80
2023/07/04 11:41:17;;;;;;;5.20;3.63;;;;;;;;;;4990930;28;20151;-78
2023/07/04 11:43:45;;;;;;;4.45;3.80;;;;;;;;;;4990798;28;20535;-77
2023/07/04 11:46:24;;;;;;;6.20;4.03;;;;;;;;;;4973856;28;20034;-77
2023/07/04 11:48:53;;;;;;;5.93;3.47;;;;;;;;;;4990925;28;20049;-80
2023/07/04 11:51:19;;;;;;;9.50;3.70;;;;;;;;;;4989483;28;20472;-79
2023/07/04 11:53:47;;;;;;;4.63;3.50;;;;;;;;;;4990642;28;20038;-79
2023/07/04 11:56:18;;;;;;;4.63;3.67;;;;;;;;;;4989931;28;20038;-79
2023/07/04 11:58:45;;;;;;;3.92;3.58;;;;;;;;;;4989398;28;20073;-81
2023/07/04 12:01:12;;;;;;;4.00;3.55;;;;;;;;;;4973829;28;20080;-78
2023/07/04 12:03:45;;;;;;;5.78;3.55;;;;;;;;;;4990820;28;20117;-80
2023/07/04 12:06:11;;;;;;;4.93;3.97;;;;;;;;;;4990882;28;20584;-78
2023/07/04 12:08:42;;;;;;;6.82;4.18;;;;;;;;;;4989510;28;20034;-80
2023/07/04 12:11:09;;;;;;;8.10;3.53;;;;;;;;;;4991225;28;20046;-80
2023/07/04 12:13:36;;;;;;;6.32;3.92;;;;;;;;;;4990565;28;20033;-79
2023/07/04 12:16:03;;;;;;;5.95;3.88;;;;;;;;;;4990147;28;20035;-80
2023/07/04 12:18:29;;;;;;;5.07;3.63;;;;;;;;;;4992684;28;20086;-80
2023/07/04 12:20:59;;;;;;;4.43;3.60;;;;;;;;;;4994839;28;20044;-79
2023/07/04 12:23:24;;;;;;;4.20;3.80;;;;;;;;;;4998181;28;20030;-79
2023/07/04 12:25:51;;;;;;;8.18;3.72;;;;;;;;;;4998581;28;20088;-77
2023/07/04 12:28:17;;;;;;;5.00;3.45;;;;;;;;;;5011317;28;20042;-80
2023/07/04 12:30:50;;;;;;;4.05;3.65;;;;;;;;;;5005695;28;20504;-78
2023/07/04 12:33:29;;;;;;;6.90;3.60;;;;;;;;;;4994842;28;20034;-79
2023/07/04 12:36:15;;;;;;;3.90;3.50;;;;;;;;;;4993752;28;20038;-79
2023/07/04 12:38:45;;;;;;;3.80;3.50;;;;;;;;;;4992413;28;20031;-79
2023/07/04 12:41:10;;;;;;;;;;;;;;;;;;4992880;28;20038;-78
2023/07/04 12:43:36;;;;;;;10.43;3.88;;;;;;;;;;4993335;28;19960;-78
2023/07/04 12:46:12;;;;;;;8.55;3.40;;;;;;;;;;4993522;28;20413;-79
2023/07/04 12:48:38;;;;;;;6.50;3.83;;;;;;;;;;4993321;28;20041;-79
2023/07/04 12:51:06;;;;;;;8.43;3.97;;;;;;;;;;4992467;28;20030;-79
2023/07/04 12:53:32;;;;;;;8.60;3.50;;;;;;;;;;4993474;28;20034;-79
2023/07/04 12:55:58;;;;;;;5.80;3.53;;;;;;;;;;4993407;28;20437;-80
2023/07/04 12:58:26;;;;;;;5.22;3.40;;;;;;;;;;4993580;28;20084;-80
2023/07/04 13:00:52;;;;;;;6.20;3.60;;;;;;;;;;4992920;28;20092;-79
2023/07/04 13:03:18;;;;;;;3.90;3.50;;;;;;;;;;4993117;28;20323;-80
2023/07/04 13:05:45;;;;;;;7.20;3.97;;;;;;;;;;4993021;28;20066;-79
2023/07/04 13:08:15;;;;;;;5.28;4.10;;;;;;;;;;4992023;28;20481;-79
2023/07/04 13:10:41;;;;;;;4.65;3.50;;;;;;;;;;4991456;28;20038;-79
2023/07/04 13:13:22;;;;;;;4.85;4.13;;;;;;;;;;4993042;28;20076;-79
2023/07/04 13:15:48;;;;;;;6.78;4.00;;;;;;;;;;4991897;28;20170;-80
2023/07/04 13:18:14;;;;;;;5.53;3.83;;;;;;;;;;4991753;28;20071;-80
2023/07/04 13:20:42;;;;;;;5.00;4.00;;;;;;;;;;4975401;28;20039;-79
2023/07/04 13:23:23;;;;;;;4.15;3.22;;;;;;;;;;4975957;28;20412;-79
2023/07/04 13:25:50;;;;;;;4.07;3.47;;;;;;;;;;4992546;28;20034;-79
2023/07/04 13:28:22;;;;;;;5.97;3.58;;;;;;;;;;4997505;28;20511;-79
2023/07/04 13:30:48;;;;;;;7.05;3.60;;;;;;;;;;5003481;28;20105;-81
2023/07/04 13:33:28;;;;;;;7.25;3.67;;;;;;;;;;4997062;28;20061;-79
2023/07/04 13:36:03;;;;;;;4.53;3.80;;;;;;;;;;4992387;28;20049;-79
2023/07/04 13:38:29;;;;;;;9.65;3.75;;;;;;;;;;4991425;28;20038;-80
2023/07/04 13:40:55;;;;;;;6.75;4.13;;;;;;;;;;4991978;28;20241;-79
2023/07/04 13:43:23;;;;;;;5.13;3.67;;;;;;;;;;4992462;28;20409;-79
2023/07/04 13:45:49;;;;;;;3.58;3.28;;;;;;;;;;4991951;28;20104;-80
2023/07/04 13:48:15;;;;;;;4.95;4.45;;;;;;;;;;4975164;28;20042;-80
2023/07/04 13:50:41;;;;;;;4.97;3.70;;;;;;;;;;4992176;28;20104;-79
2023/07/04 13:53:07;;;;;;;4.43;3.92;;;;;;;;;;4990849;28;20524;-79
2023/07/04 13:55:33;;;;;;;5.57;3.70;;;;;;;;;;4992261;28;20042;-80
2023/07/04 13:57:59;;;;;;;4.22;3.63;;;;;;;;;;4991500;28;20128;-79
2023/07/04 14:00:25;;;;;;;5.20;3.88;;;;;;;;;;4992930;28;20038;-79
2023/07/04 14:02:52;;;;;;;5.18;3.70;;;;;;;;;;4991252;28;20034;-80
2023/07/04 14:05:18;;;;;;;7.13;3.78;;;;;;;;;;4991183;28;20042;-80
2023/07/04 14:07:46;;;;;;;3.78;3.47;;;;;;;;;;4991609;28;20084;-80
2023/07/04 14:10:13;;;;;;;5.68;3.83;;;;;;;;;;4991509;28;20048;-80
2023/07/04 14:12:39;;;;;;;4.05;3.30;;;;;;;;;;4976007;28;20030;-80
2023/07/04 14:15:06;;;;;;;5.18;3.80;;;;;;;;;;4992431;28;20053;-79
2023/07/04 14:17:32;;;;;;;4.82;3.63;;;;;;;;;;4993291;28;20096;-79
2023/07/04 14:19:58;;;;;;;4.07;3.45;;;;;;;;;;4990883;28;20639;-79
2023/07/04 14:22:24;;;;;;;4.13;3.70;;;;;;;;;;4975404;28;20066;-81
2023/07/04 14:24:50;;;;;;;8.85;3.40;;;;;;;;;;4992132;28;20066;-79
2023/07/04 14:27:16;;;;;;;4.20;3.78;;;;;;;;;;4992479;28;20034;-79
2023/07/04 14:29:42;;;;;;;5.38;3.95;;;;;;;;;;4991913;28;20058;-80
2023/07/04 14:32:08;;;;;;;4.18;3.80;;;;;;;;;;4991836;28;20121;-79
2023/07/04 14:34:34;;;;;;;8.45;3.88;;;;;;;;;;4989987;28;20153;-79
2023/07/04 14:37:00;;;;;;;5.03;3.72;;;;;;;;;;4991139;28;20042;-79
2023/07/04 14:39:26;;;;;;;3.95;3.65;;;;;;;;;;4991171;28;20093;-79
2023/07/04 14:41:54;;;;;;;3.90;3.50;;;;;;;;;;4990260;28;20038;-80
2023/07/04 14:44:21;;;;;;;10.43;3.75;;;;;;;;;;4990937;28;20034;-79